Hazardville, Connecticut
Current Conditions -  °F | °C
As of 4:51 PM on Sunday 25 Jan 2015 (Local Time) from KBDL Reporting Station
Broken Clouds Broken Clouds  
Wind Chill: 22°   Ceiling: 25000
Heat Index: 30°   Visibility: 10mi
Dew Point:   Wind: 9mph
Humidity: 35%   Direction: 330°NNW
Pressure: 29.81"   Gusts: NA
Location:  41.9843°N, 72.5534°W
Report Text: KBDL 252151Z 33008KT 10SM BKN250 M01/M15 A2981 RMK AO2 SLP097 T10111150 $
Loading
Personal Weather Stations






























Interactive Weather Map New forecast layout! Learn more

10-Day Weather Forecast

Advertisements
Track Severe Weather on mobile